Main page
METAR-TAF:

METAR-TAF

Airports :

Seychelles International Airport

Victoria, Mahé, Seychelles

latitude: 04-40S, longitude: 055-31E, elevation: 3 m

Current weather observation

The report was made 55 minutes ago, at 16:00 UTC
Wind 10 kt from the East/Southeast with gusts up to 20 kt, varying between East and South/Southeast
Temperature 26°C
Humidity 84%
Pressure 1013 hPa
Visibility 10 km or more
Broken clouds at a height of 1800 ft

METAR: FSIA 221600Z 12010G20KT 090V160 9999 BKN018 26/23 Q1013 NOSIG

Time: 20:55 (16:55 UTC)

Forecast

The report was made 5 hours and 54 minutes ago, at 11:01 UTC
Forecast valid from 22 at 12 UTC to 23 at 12 UTC
Wind 15 kt from the East/Southeast with gusts up to 25 kt
Visibility 10 km or more
Scattered clouds at a height of 2000 ft

TAF: FSIA 221101Z 2212/2312 12015G25KT 9999 SCT020

Weather observations and forecasts of more than 4000 airports (METAR and TAF reports).

The available stations are represented by yellow and red dots on the map.

Hover mouse over dot to see the name of the station.

Then click to see weather observations and forecasts.

To change the map : click on the green buttons with a black cross to zoom in, on the green button with a dash to zoom out, or on the green arrows for adjacent maps.


METAR-TAF: